sensor_id;sensor_type;location;lat;lon;timestamp;P1;durP1;ratioP1;P2;durP2;ratioP2
47309;SDS011;33046;52.270;6.832;2023-10-19T00:00:44;7.85;;;7.05;;
47309;SDS011;33046;52.270;6.832;2023-10-19T00:02:50;7.35;;;6.60;;
47309;SDS011;33046;52.270;6.832;2023-10-19T00:04:58;9.30;;;7.25;;
47309;SDS011;33046;52.270;6.832;2023-10-19T00:07:05;9.43;;;6.38;;
47309;SDS011;33046;52.270;6.832;2023-10-19T00:09:12;8.20;;;7.15;;
47309;SDS011;33046;52.270;6.832;2023-10-19T00:11:19;8.38;;;7.25;;
47309;SDS011;33046;52.270;6.832;2023-10-19T00:13:26;8.07;;;7.28;;
47309;SDS011;33046;52.270;6.832;2023-10-19T00:15:33;7.88;;;7.00;;
47309;SDS011;33046;52.270;6.832;2023-10-19T00:17:40;9.05;;;7.88;;
47309;SDS011;33046;52.270;6.832;2023-10-19T00:19:47;8.90;;;8.07;;
47309;SDS011;33046;52.270;6.832;2023-10-19T00:21:55;8.00;;;7.20;;
47309;SDS011;33046;52.270;6.832;2023-10-19T00:24:02;9.90;;;8.25;;
47309;SDS011;33046;52.270;6.832;2023-10-19T00:26:09;8.88;;;7.20;;
47309;SDS011;33046;52.270;6.832;2023-10-19T00:28:19;8.60;;;7.35;;
47309;SDS011;33046;52.270;6.832;2023-10-19T00:30:26;8.60;;;6.78;;
47309;SDS011;33046;52.270;6.832;2023-10-19T00:32:33;8.45;;;7.50;;
47309;SDS011;33046;52.270;6.832;2023-10-19T00:34:40;12.00;;;7.93;;
47309;SDS011;33046;52.270;6.832;2023-10-19T00:36:47;8.95;;;7.40;;
47309;SDS011;33046;52.270;6.832;2023-10-19T00:38:55;8.10;;;7.30;;
47309;SDS011;33046;52.270;6.832;2023-10-19T00:41:03;9.02;;;7.60;;
47309;SDS011;33046;52.270;6.832;2023-10-19T00:43:11;8.63;;;6.97;;
47309;SDS011;33046;52.270;6.832;2023-10-19T00:45:18;8.90;;;7.68;;
47309;SDS011;33046;52.270;6.832;2023-10-19T00:47:25;10.05;;;7.20;;
47309;SDS011;33046;52.270;6.832;2023-10-19T00:49:33;8.57;;;7.55;;
47309;SDS011;33046;52.270;6.832;2023-10-19T00:51:40;8.93;;;8.02;;
47309;SDS011;33046;52.270;6.832;2023-10-19T00:53:51;8.80;;;7.60;;
47309;SDS011;33046;52.270;6.832;2023-10-19T00:55:59;8.95;;;8.05;;
47309;SDS011;33046;52.270;6.832;2023-10-19T00:58:06;8.05;;;7.03;;
47309;SDS011;33046;52.270;6.832;2023-10-19T01:00:13;8.95;;;8.05;;
47309;SDS011;33046;52.270;6.832;2023-10-19T01:02:20;8.43;;;6.75;;
47309;SDS011;33046;52.270;6.832;2023-10-19T01:04:27;7.82;;;7.03;;
47309;SDS011;33046;52.270;6.832;2023-10-19T01:06:34;8.45;;;7.55;;
47309;SDS011;33046;52.270;6.832;2023-10-19T01:08:41;7.75;;;6.95;;
47309;SDS011;33046;52.270;6.832;2023-10-19T01:10:48;8.00;;;7.25;;
47309;SDS011;33046;52.270;6.832;2023-10-19T01:12:56;7.35;;;6.75;;
47309;SDS011;33046;52.270;6.832;2023-10-19T01:15:04;7.38;;;6.57;;
47309;SDS011;33046;52.270;6.832;2023-10-19T01:17:12;7.03;;;6.32;;
47309;SDS011;33046;52.270;6.832;2023-10-19T01:19:19;6.95;;;5.82;;
47309;SDS011;33046;52.270;6.832;2023-10-19T01:21:26;8.18;;;6.97;;
47309;SDS011;33046;52.270;6.832;2023-10-19T01:23:34;6.25;;;5.65;;
47309;SDS011;33046;52.270;6.832;2023-10-19T01:25:44;6.15;;;5.55;;
47309;SDS011;33046;52.270;6.832;2023-10-19T01:27:52;7.43;;;6.72;;
47309;SDS011;33046;52.270;6.832;2023-10-19T01:29:59;6.63;;;5.93;;
47309;SDS011;33046;52.270;6.832;2023-10-19T01:32:06;6.75;;;6.20;;
47309;SDS011;33046;52.270;6.832;2023-10-19T01:34:13;6.90;;;6.20;;
47309;SDS011;33046;52.270;6.832;2023-10-19T01:36:20;6.65;;;6.07;;
47309;SDS011;33046;52.270;6.832;2023-10-19T01:38:27;6.90;;;6.30;;
47309;SDS011;33046;52.270;6.832;2023-10-19T01:40:35;7.20;;;6.50;;
47309;SDS011;33046;52.270;6.832;2023-10-19T01:42:42;6.70;;;6.10;;
47309;SDS011;33046;52.270;6.832;2023-10-19T01:44:48;7.80;;;7.10;;
47309;SDS011;33046;52.270;6.832;2023-10-19T01:46:55;9.60;;;7.45;;
47309;SDS011;33046;52.270;6.832;2023-10-19T01:49:03;7.82;;;7.03;;
47309;SDS011;33046;52.270;6.832;2023-10-19T01:51:11;7.65;;;6.90;;
47309;SDS011;33046;52.270;6.832;2023-10-19T01:53:18;7.53;;;6.82;;
47309;SDS011;33046;52.270;6.832;2023-10-19T01:55:24;7.90;;;7.20;;
47309;SDS011;33046;52.270;6.832;2023-10-19T01:57:33;7.72;;;7.03;;
47309;SDS011;33046;52.270;6.832;2023-10-19T01:59:39;6.70;;;6.18;;
47309;SDS011;33046;52.270;6.832;2023-10-19T02:01:46;6.72;;;6.13;;
47309;SDS011;33046;52.270;6.832;2023-10-19T02:03:54;6.85;;;6.25;;
47309;SDS011;33046;52.270;6.832;2023-10-19T02:06:02;6.53;;;5.93;;
47309;SDS011;33046;52.270;6.832;2023-10-19T02:08:09;6.35;;;5.85;;
47309;SDS011;33046;52.270;6.832;2023-10-19T02:10:16;7.15;;;6.55;;
47309;SDS011;33046;52.270;6.832;2023-10-19T02:12:23;7.35;;;6.65;;
47309;SDS011;33046;52.270;6.832;2023-10-19T02:14:31;6.88;;;6.22;;
47309;SDS011;33046;52.270;6.832;2023-10-19T02:16:38;7.22;;;6.55;;
47309;SDS011;33046;52.270;6.832;2023-10-19T02:18:45;7.30;;;6.70;;
47309;SDS011;33046;52.270;6.832;2023-10-19T02:20:52;8.85;;;8.00;;
47309;SDS011;33046;52.270;6.832;2023-10-19T02:22:59;7.72;;;7.03;;
47309;SDS011;33046;52.270;6.832;2023-10-19T02:25:06;7.80;;;7.20;;
47309;SDS011;33046;52.270;6.832;2023-10-19T02:27:14;7.28;;;6.57;;
47309;SDS011;33046;52.270;6.832;2023-10-19T02:29:24;6.80;;;6.20;;
47309;SDS011;33046;52.270;6.832;2023-10-19T02:31:33;7.90;;;7.20;;
47309;SDS011;33046;52.270;6.832;2023-10-19T02:33:40;8.25;;;7.55;;
47309;SDS011;33046;52.270;6.832;2023-10-19T02:35:47;6.70;;;6.10;;
47309;SDS011;33046;52.270;6.832;2023-10-19T02:37:54;6.90;;;6.30;;
47309;SDS011;33046;52.270;6.832;2023-10-19T02:40:02;7.32;;;6.63;;
47309;SDS011;33046;52.270;6.832;2023-10-19T02:42:09;6.70;;;5.93;;
47309;SDS011;33046;52.270;6.832;2023-10-19T02:44:16;7.85;;;7.15;;
47309;SDS011;33046;52.270;6.832;2023-10-19T02:46:24;6.60;;;5.95;;
47309;SDS011;33046;52.270;6.832;2023-10-19T02:48:32;7.53;;;6.93;;
47309;SDS011;33046;52.270;6.832;2023-10-19T02:50:39;7.93;;;7.20;;
47309;SDS011;33046;52.270;6.832;2023-10-19T02:52:47;7.97;;;7.32;;
47309;SDS011;33046;52.270;6.832;2023-10-19T02:54:54;7.53;;;6.82;;
47309;SDS011;33046;52.270;6.832;2023-10-19T02:57:01;6.90;;;6.28;;
47309;SDS011;33046;52.270;6.832;2023-10-19T02:59:07;7.90;;;7.13;;
47309;SDS011;33046;52.270;6.832;2023-10-19T03:01:17;8.63;;;7.85;;
47309;SDS011;33046;52.270;6.832;2023-10-19T03:03:25;9.40;;;6.85;;
47309;SDS011;33046;52.270;6.832;2023-10-19T03:05:33;6.80;;;6.20;;
47309;SDS011;33046;52.270;6.832;2023-10-19T03:07:40;7.88;;;7.15;;
47309;SDS011;33046;52.270;6.832;2023-10-19T03:09:47;8.27;;;7.57;;
47309;SDS011;33046;52.270;6.832;2023-10-19T03:11:54;6.75;;;6.15;;
47309;SDS011;33046;52.270;6.832;2023-10-19T03:14:02;7.97;;;7.32;;
47309;SDS011;33046;52.270;6.832;2023-10-19T03:16:09;7.65;;;6.95;;
47309;SDS011;33046;52.270;6.832;2023-10-19T03:18:15;7.88;;;7.22;;
47309;SDS011;33046;52.270;6.832;2023-10-19T03:20:22;7.55;;;6.85;;
47309;SDS011;33046;52.270;6.832;2023-10-19T03:22:30;7.70;;;7.00;;
47309;SDS011;33046;52.270;6.832;2023-10-19T03:24:37;8.82;;;8.02;;
47309;SDS011;33046;52.270;6.832;2023-10-19T03:26:44;8.68;;;7.93;;
47309;SDS011;33046;52.270;6.832;2023-10-19T03:28:51;7.28;;;6.68;;
47309;SDS011;33046;52.270;6.832;2023-10-19T03:30:58;7.38;;;6.78;;
47309;SDS011;33046;52.270;6.832;2023-10-19T03:33:07;7.88;;;7.18;;
47309;SDS011;33046;52.270;6.832;2023-10-19T03:35:14;8.38;;;7.68;;
47309;SDS011;33046;52.270;6.832;2023-10-19T03:37:21;8.77;;;7.97;;
47309;SDS011;33046;52.270;6.832;2023-10-19T03:39:29;9.75;;;7.45;;
47309;SDS011;33046;52.270;6.832;2023-10-19T03:41:36;8.45;;;7.72;;
47309;SDS011;33046;52.270;6.832;2023-10-19T03:43:43;7.90;;;7.30;;
47309;SDS011;33046;52.270;6.832;2023-10-19T03:45:51;8.63;;;7.82;;
47309;SDS011;33046;52.270;6.832;2023-10-19T03:47:57;7.78;;;7.18;;
47309;SDS011;33046;52.270;6.832;2023-10-19T03:50:04;8.38;;;7.57;;
47309;SDS011;33046;52.270;6.832;2023-10-19T03:52:12;8.63;;;7.93;;
47309;SDS011;33046;52.270;6.832;2023-10-19T03:54:20;8.52;;;7.82;;
47309;SDS011;33046;52.270;6.832;2023-10-19T03:56:28;8.68;;;7.88;;
47309;SDS011;33046;52.270;6.832;2023-10-19T03:58:35;8.13;;;7.32;;
47309;SDS011;33046;52.270;6.832;2023-10-19T04:00:42;8.30;;;7.60;;
47309;SDS011;33046;52.270;6.832;2023-10-19T04:02:49;7.82;;;7.22;;
47309;SDS011;33046;52.270;6.832;2023-10-19T04:04:56;9.00;;;7.70;;
47309;SDS011;33046;52.270;6.832;2023-10-19T04:07:02;8.25;;;7.55;;
47309;SDS011;33046;52.270;6.832;2023-10-19T04:09:09;8.48;;;7.85;;
47309;SDS011;33046;52.270;6.832;2023-10-19T04:11:16;10.00;;;9.20;;
47309;SDS011;33046;52.270;6.832;2023-10-19T04:13:25;8.98;;;8.25;;
47309;SDS011;33046;52.270;6.832;2023-10-19T04:15:31;9.50;;;8.60;;
47309;SDS011;33046;52.270;6.832;2023-10-19T04:17:38;10.18;;;9.35;;
47309;SDS011;33046;52.270;6.832;2023-10-19T04:19:45;9.50;;;8.70;;
47309;SDS011;33046;52.270;6.832;2023-10-19T04:21:52;9.85;;;8.95;;
47309;SDS011;33046;52.270;6.832;2023-10-19T04:23:59;9.45;;;8.65;;
47309;SDS011;33046;52.270;6.832;2023-10-19T04:26:05;10.00;;;9.10;;
47309;SDS011;33046;52.270;6.832;2023-10-19T04:28:12;10.45;;;9.48;;
47309;SDS011;33046;52.270;6.832;2023-10-19T04:30:21;10.82;;;10.02;;
47309;SDS011;33046;52.270;6.832;2023-10-19T04:32:28;10.27;;;9.38;;
47309;SDS011;33046;52.270;6.832;2023-10-19T04:34:34;9.70;;;8.75;;
47309;SDS011;33046;52.270;6.832;2023-10-19T04:36:41;10.30;;;9.40;;
47309;SDS011;33046;52.270;6.832;2023-10-19T04:38:48;9.82;;;9.02;;
47309;SDS011;33046;52.270;6.832;2023-10-19T04:40:55;10.27;;;9.32;;
47309;SDS011;33046;52.270;6.832;2023-10-19T04:43:10;11.32;;;9.23;;
47309;SDS011;33046;52.270;6.832;2023-10-19T04:45:16;10.80;;;9.82;;
47309;SDS011;33046;52.270;6.832;2023-10-19T04:47:25;10.50;;;9.50;;
47309;SDS011;33046;52.270;6.832;2023-10-19T04:49:32;10.00;;;9.18;;
47309;SDS011;33046;52.270;6.832;2023-10-19T04:51:39;9.38;;;8.57;;
47309;SDS011;33046;52.270;6.832;2023-10-19T04:53:46;9.32;;;8.40;;
47309;SDS011;33046;52.270;6.832;2023-10-19T04:55:52;10.20;;;9.30;;
47309;SDS011;33046;52.270;6.832;2023-10-19T04:57:59;9.95;;;9.15;;
47309;SDS011;33046;52.270;6.832;2023-10-19T05:00:06;9.57;;;8.70;;
47309;SDS011;33046;52.270;6.832;2023-10-19T05:02:14;11.30;;;10.20;;
47309;SDS011;33046;52.270;6.832;2023-10-19T05:04:22;9.45;;;8.65;;
47309;SDS011;33046;52.270;6.832;2023-10-19T05:06:29;11.95;;;10.60;;
47309;SDS011;33046;52.270;6.832;2023-10-19T05:08:36;9.52;;;8.63;;
47309;SDS011;33046;52.270;6.832;2023-10-19T05:10:43;9.85;;;8.95;;
47309;SDS011;33046;52.270;6.832;2023-10-19T05:12:49;10.52;;;9.55;;
47309;SDS011;33046;52.270;6.832;2023-10-19T05:14:56;10.27;;;9.35;;
47309;SDS011;33046;52.270;6.832;2023-10-19T05:17:03;10.00;;;9.05;;
47309;SDS011;33046;52.270;6.832;2023-10-19T05:19:10;10.32;;;9.35;;
47309;SDS011;33046;52.270;6.832;2023-10-19T05:21:18;10.88;;;9.88;;
47309;SDS011;33046;52.270;6.832;2023-10-19T05:23:26;9.95;;;9.05;;
47309;SDS011;33046;52.270;6.832;2023-10-19T05:25:34;9.82;;;8.98;;
47309;SDS011;33046;52.270;6.832;2023-10-19T05:27:40;9.35;;;8.55;;
47309;SDS011;33046;52.270;6.832;2023-10-19T05:29:48;10.68;;;9.32;;
47309;SDS011;33046;52.270;6.832;2023-10-19T05:31:55;11.70;;;10.60;;
47309;SDS011;33046;52.270;6.832;2023-10-19T05:34:02;10.63;;;9.63;;
47309;SDS011;33046;52.270;6.832;2023-10-19T05:36:09;10.20;;;9.25;;
47309;SDS011;33046;52.270;6.832;2023-10-19T05:38:17;10.18;;;9.27;;
47309;SDS011;33046;52.270;6.832;2023-10-19T05:40:24;10.73;;;9.27;;
47309;SDS011;33046;52.270;6.832;2023-10-19T05:42:31;11.82;;;10.68;;
47309;SDS011;33046;52.270;6.832;2023-10-19T05:44:38;11.35;;;10.25;;
47309;SDS011;33046;52.270;6.832;2023-10-19T05:46:44;9.90;;;9.07;;
47309;SDS011;33046;52.270;6.832;2023-10-19T05:48:51;13.32;;;10.02;;
47309;SDS011;33046;52.270;6.832;2023-10-19T05:50:58;11.13;;;10.02;;
47309;SDS011;33046;52.270;6.832;2023-10-19T05:53:05;11.20;;;10.13;;
47309;SDS011;33046;52.270;6.832;2023-10-19T05:55:13;10.63;;;9.63;;
47309;SDS011;33046;52.270;6.832;2023-10-19T05:57:20;10.63;;;9.65;;
47309;SDS011;33046;52.270;6.832;2023-10-19T05:59:27;11.18;;;9.98;;
47309;SDS011;33046;52.270;6.832;2023-10-19T06:01:34;11.20;;;10.20;;
47309;SDS011;33046;52.270;6.832;2023-10-19T06:03:41;10.73;;;9.23;;
47309;SDS011;33046;52.270;6.832;2023-10-19T06:05:48;13.35;;;10.77;;
47309;SDS011;33046;52.270;6.832;2023-10-19T06:07:54;10.50;;;9.27;;
47309;SDS011;33046;52.270;6.832;2023-10-19T06:10:01;11.23;;;10.23;;
47309;SDS011;33046;52.270;6.832;2023-10-19T06:12:09;11.75;;;10.30;;
47309;SDS011;33046;52.270;6.832;2023-10-19T06:14:16;10.05;;;9.10;;
47309;SDS011;33046;52.270;6.832;2023-10-19T06:16:23;10.07;;;9.18;;
47309;SDS011;33046;52.270;6.832;2023-10-19T06:18:30;10.88;;;9.77;;
47309;SDS011;33046;52.270;6.832;2023-10-19T06:20:37;10.48;;;9.38;;
47309;SDS011;33046;52.270;6.832;2023-10-19T06:22:49;10.68;;;9.68;;
47309;SDS011;33046;52.270;6.832;2023-10-19T06:24:57;11.73;;;10.52;;
47309;SDS011;33046;52.270;6.832;2023-10-19T06:27:03;9.98;;;8.95;;
47309;SDS011;33046;52.270;6.832;2023-10-19T06:29:12;12.52;;;11.32;;
47309;SDS011;33046;52.270;6.832;2023-10-19T06:31:18;11.63;;;9.20;;
47309;SDS011;33046;52.270;6.832;2023-10-19T06:33:25;10.98;;;9.45;;
47309;SDS011;33046;52.270;6.832;2023-10-19T06:35:32;11.07;;;9.80;;
47309;SDS011;33046;52.270;6.832;2023-10-19T06:37:40;10.30;;;8.05;;
47309;SDS011;33046;52.270;6.832;2023-10-19T06:39:47;8.90;;;8.00;;
47309;SDS011;33046;52.270;6.832;2023-10-19T06:41:53;9.10;;;8.27;;
47309;SDS011;33046;52.270;6.832;2023-10-19T06:44:00;9.65;;;8.68;;
47309;SDS011;33046;52.270;6.832;2023-10-19T06:46:09;9.43;;;8.52;;
47309;SDS011;33046;52.270;6.832;2023-10-19T06:48:15;8.73;;;7.82;;
47309;SDS011;33046;52.270;6.832;2023-10-19T06:50:23;9.40;;;8.45;;
47309;SDS011;33046;52.270;6.832;2023-10-19T06:52:30;11.02;;;9.93;;
47309;SDS011;33046;52.270;6.832;2023-10-19T06:54:37;10.02;;;9.02;;
47309;SDS011;33046;52.270;6.832;2023-10-19T06:56:44;9.38;;;8.48;;
47309;SDS011;33046;52.270;6.832;2023-10-19T06:58:50;9.10;;;8.20;;
47309;SDS011;33046;52.270;6.832;2023-10-19T07:00:57;8.50;;;7.60;;
47309;SDS011;33046;52.270;6.832;2023-10-19T07:03:05;9.88;;;8.88;;
47309;SDS011;33046;52.270;6.832;2023-10-19T07:05:12;9.43;;;8.52;;
47309;SDS011;33046;52.270;6.832;2023-10-19T07:07:20;9.52;;;8.43;;
47309;SDS011;33046;52.270;6.832;2023-10-19T07:09:26;9.85;;;7.72;;
47309;SDS011;33046;52.270;6.832;2023-10-19T07:11:33;10.82;;;8.20;;
47309;SDS011;33046;52.270;6.832;2023-10-19T07:13:40;9.75;;;7.85;;
47309;SDS011;33046;52.270;6.832;2023-10-19T07:15:47;8.05;;;7.15;;
47309;SDS011;33046;52.270;6.832;2023-10-19T07:17:54;9.68;;;7.63;;
47309;SDS011;33046;52.270;6.832;2023-10-19T07:20:02;9.98;;;7.38;;
47309;SDS011;33046;52.270;6.832;2023-10-19T07:22:10;8.32;;;6.38;;
47309;SDS011;33046;52.270;6.832;2023-10-19T07:24:17;7.55;;;6.75;;
47309;SDS011;33046;52.270;6.832;2023-10-19T07:26:24;6.95;;;6.32;;
47309;SDS011;33046;52.270;6.832;2023-10-19T07:28:31;9.75;;;6.70;;
47309;SDS011;33046;52.270;6.832;2023-10-19T07:30:38;7.07;;;6.32;;
47309;SDS011;33046;52.270;6.832;2023-10-19T07:32:45;11.13;;;8.07;;
47309;SDS011;33046;52.270;6.832;2023-10-19T07:34:52;6.80;;;6.10;;
47309;SDS011;33046;52.270;6.832;2023-10-19T07:37:00;7.93;;;5.85;;
47309;SDS011;33046;52.270;6.832;2023-10-19T07:39:07;8.98;;;6.47;;
47309;SDS011;33046;52.270;6.832;2023-10-19T07:41:14;7.93;;;5.63;;
47309;SDS011;33046;52.270;6.832;2023-10-19T07:43:21;6.40;;;5.72;;
47309;SDS011;33046;52.270;6.832;2023-10-19T07:45:28;7.85;;;5.80;;
47309;SDS011;33046;52.270;6.832;2023-10-19T07:47:35;8.18;;;6.13;;
47309;SDS011;33046;52.270;6.832;2023-10-19T07:49:42;9.40;;;7.55;;
47309;SDS011;33046;52.270;6.832;2023-10-19T07:51:49;5.55;;;5.05;;
47309;SDS011;33046;52.270;6.832;2023-10-19T07:53:57;6.40;;;5.40;;
47309;SDS011;33046;52.270;6.832;2023-10-19T07:56:04;9.77;;;6.07;;
47309;SDS011;33046;52.270;6.832;2023-10-19T07:58:11;9.98;;;4.72;;
47309;SDS011;33046;52.270;6.832;2023-10-19T08:00:19;11.38;;;4.80;;
47309;SDS011;33046;52.270;6.832;2023-10-19T08:02:27;6.38;;;4.60;;
47309;SDS011;33046;52.270;6.832;2023-10-19T08:04:34;8.43;;;5.43;;
47309;SDS011;33046;52.270;6.832;2023-10-19T08:06:40;7.75;;;4.57;;
47309;SDS011;33046;52.270;6.832;2023-10-19T08:08:47;8.77;;;4.35;;
47309;SDS011;33046;52.270;6.832;2023-10-19T08:10:55;12.25;;;6.15;;
47309;SDS011;33046;52.270;6.832;2023-10-19T08:13:02;8.80;;;4.75;;
47309;SDS011;33046;52.270;6.832;2023-10-19T08:15:09;7.75;;;4.32;;
47309;SDS011;33046;52.270;6.832;2023-10-19T08:17:17;7.35;;;4.35;;
47309;SDS011;33046;52.270;6.832;2023-10-19T08:19:24;6.85;;;3.78;;
47309;SDS011;33046;52.270;6.832;2023-10-19T08:21:30;7.53;;;3.95;;
47309;SDS011;33046;52.270;6.832;2023-10-19T08:23:37;7.68;;;4.03;;
47309;SDS011;33046;52.270;6.832;2023-10-19T08:25:44;5.85;;;4.53;;
47309;SDS011;33046;52.270;6.832;2023-10-19T08:28:01;6.53;;;3.20;;
47309;SDS011;33046;52.270;6.832;2023-10-19T08:30:09;6.05;;;3.70;;
47309;SDS011;33046;52.270;6.832;2023-10-19T08:32:16;5.60;;;3.65;;
47309;SDS011;33046;52.270;6.832;2023-10-19T08:34:22;8.50;;;3.85;;
47309;SDS011;33046;52.270;6.832;2023-10-19T08:36:29;6.45;;;3.45;;
47309;SDS011;33046;52.270;6.832;2023-10-19T08:38:36;5.45;;;3.28;;
47309;SDS011;33046;52.270;6.832;2023-10-19T08:40:43;4.00;;;3.22;;
47309;SDS011;33046;52.270;6.832;2023-10-19T08:42:50;6.38;;;3.35;;
47309;SDS011;33046;52.270;6.832;2023-10-19T08:44:58;6.05;;;3.88;;
47309;SDS011;33046;52.270;6.832;2023-10-19T08:47:05;4.65;;;3.15;;
47309;SDS011;33046;52.270;6.832;2023-10-19T08:49:12;9.93;;;4.43;;
47309;SDS011;33046;52.270;6.832;2023-10-19T08:51:19;6.70;;;3.10;;
47309;SDS011;33046;52.270;6.832;2023-10-19T08:53:26;5.55;;;3.92;;
47309;SDS011;33046;52.270;6.832;2023-10-19T08:55:34;7.47;;;3.08;;
47309;SDS011;33046;52.270;6.832;2023-10-19T08:57:44;4.38;;;3.13;;
47309;SDS011;33046;52.270;6.832;2023-10-19T08:59:51;6.72;;;3.35;;
47309;SDS011;33046;52.270;6.832;2023-10-19T09:02:02;4.80;;;2.88;;
47309;SDS011;33046;52.270;6.832;2023-10-19T09:04:10;7.13;;;3.80;;
47309;SDS011;33046;52.270;6.832;2023-10-19T09:06:17;6.50;;;2.80;;
47309;SDS011;33046;52.270;6.832;2023-10-19T09:08:24;8.60;;;3.20;;
47309;SDS011;33046;52.270;6.832;2023-10-19T09:10:31;9.65;;;3.13;;
47309;SDS011;33046;52.270;6.832;2023-10-19T09:12:38;5.05;;;2.38;;
47309;SDS011;33046;52.270;6.832;2023-10-19T09:14:44;6.03;;;2.60;;
47309;SDS011;33046;52.270;6.832;2023-10-19T09:16:54;7.05;;;3.00;;
47309;SDS011;33046;52.270;6.832;2023-10-19T09:19:03;9.40;;;4.22;;
47309;SDS011;33046;52.270;6.832;2023-10-19T09:21:10;4.93;;;2.58;;
47309;SDS011;33046;52.270;6.832;2023-10-19T09:23:21;5.78;;;3.10;;
47309;SDS011;33046;52.270;6.832;2023-10-19T09:25:29;5.07;;;2.85;;
47309;SDS011;33046;52.270;6.832;2023-10-19T09:27:35;8.77;;;2.30;;
47309;SDS011;33046;52.270;6.832;2023-10-19T09:29:42;4.22;;;2.25;;
47309;SDS011;33046;52.270;6.832;2023-10-19T09:31:49;4.85;;;3.00;;
47309;SDS011;33046;52.270;6.832;2023-10-19T09:33:56;8.30;;;2.50;;
47309;SDS011;33046;52.270;6.832;2023-10-19T09:36:06;5.28;;;2.47;;
47309;SDS011;33046;52.270;6.832;2023-10-19T09:38:15;4.38;;;2.13;;
47309;SDS011;33046;52.270;6.832;2023-10-19T09:40:22;4.05;;;2.50;;
47309;SDS011;33046;52.270;6.832;2023-10-19T09:42:29;8.40;;;2.78;;
47309;SDS011;33046;52.270;6.832;2023-10-19T09:44:40;7.25;;;2.63;;
47309;SDS011;33046;52.270;6.832;2023-10-19T09:46:48;5.20;;;3.17;;
47309;SDS011;33046;52.270;6.832;2023-10-19T09:48:56;6.53;;;2.40;;
47309;SDS011;33046;52.270;6.832;2023-10-19T09:51:03;5.13;;;2.17;;
47309;SDS011;33046;52.270;6.832;2023-10-19T09:53:12;4.93;;;2.55;;
47309;SDS011;33046;52.270;6.832;2023-10-19T09:55:22;6.75;;;2.88;;
47309;SDS011;33046;52.270;6.832;2023-10-19T09:57:34;4.07;;;2.13;;
47309;SDS011;33046;52.270;6.832;2023-10-19T09:59:49;14.30;;;3.25;;
47309;SDS011;33046;52.270;6.832;2023-10-19T10:02:03;6.40;;;2.00;;
47309;SDS011;33046;52.270;6.832;2023-10-19T10:04:26;6.65;;;2.20;;
47309;SDS011;33046;52.270;6.832;2023-10-19T10:09:06;6.80;;;2.45;;
47309;SDS011;33046;52.270;6.832;2023-10-19T10:11:17;6.57;;;3.28;;
47309;SDS011;33046;52.270;6.832;2023-10-19T10:13:37;4.07;;;2.25;;
47309;SDS011;33046;52.270;6.832;2023-10-19T10:15:44;7.50;;;2.38;;
47309;SDS011;33046;52.270;6.832;2023-10-19T10:17:54;4.15;;;1.77;;
47309;SDS011;33046;52.270;6.832;2023-10-19T10:22:36;4.75;;;2.35;;
47309;SDS011;33046;52.270;6.832;2023-10-19T10:24:44;8.05;;;3.20;;
47309;SDS011;33046;52.270;6.832;2023-10-19T10:26:57;6.60;;;2.10;;
47309;SDS011;33046;52.270;6.832;2023-10-19T10:29:07;4.05;;;1.52;;
47309;SDS011;33046;52.270;6.832;2023-10-19T10:31:21;6.63;;;2.25;;
47309;SDS011;33046;52.270;6.832;2023-10-19T10:33:37;4.78;;;2.35;;
47309;SDS011;33046;52.270;6.832;2023-10-19T10:35:54;7.78;;;3.05;;
47309;SDS011;33046;52.270;6.832;2023-10-19T10:38:00;6.32;;;2.83;;
47309;SDS011;33046;52.270;6.832;2023-10-19T10:40:10;4.80;;;2.15;;
47309;SDS011;33046;52.270;6.832;2023-10-19T10:42:17;6.47;;;2.08;;
47309;SDS011;33046;52.270;6.832;2023-10-19T10:44:36;5.55;;;2.13;;
47309;SDS011;33046;52.270;6.832;2023-10-19T10:46:44;10.30;;;3.13;;
47309;SDS011;33046;52.270;6.832;2023-10-19T10:48:51;10.57;;;2.67;;
47309;SDS011;33046;52.270;6.832;2023-10-19T10:50:58;6.22;;;2.30;;
47309;SDS011;33046;52.270;6.832;2023-10-19T10:53:05;7.00;;;3.58;;
47309;SDS011;33046;52.270;6.832;2023-10-19T10:55:13;6.35;;;2.45;;
47309;SDS011;33046;52.270;6.832;2023-10-19T10:57:20;10.05;;;4.40;;
47309;SDS011;33046;52.270;6.832;2023-10-19T10:59:27;4.55;;;2.33;;
47309;SDS011;33046;52.270;6.832;2023-10-19T11:01:34;6.82;;;2.28;;
47309;SDS011;33046;52.270;6.832;2023-10-19T11:03:41;6.75;;;2.53;;
47309;SDS011;33046;52.270;6.832;2023-10-19T11:05:48;9.50;;;3.42;;
47309;SDS011;33046;52.270;6.832;2023-10-19T11:08:05;7.30;;;2.28;;
47309;SDS011;33046;52.270;6.832;2023-10-19T11:10:14;7.13;;;2.00;;
47309;SDS011;33046;52.270;6.832;2023-10-19T11:12:33;7.40;;;1.98;;
47309;SDS011;33046;52.270;6.832;2023-10-19T11:14:50;8.30;;;2.53;;
47309;SDS011;33046;52.270;6.832;2023-10-19T11:17:11;4.78;;;1.58;;
47309;SDS011;33046;52.270;6.832;2023-10-19T11:19:18;7.90;;;1.98;;
47309;SDS011;33046;52.270;6.832;2023-10-19T11:21:25;4.13;;;1.40;;
47309;SDS011;33046;52.270;6.832;2023-10-19T11:23:38;7.00;;;2.45;;
47309;SDS011;33046;52.270;6.832;2023-10-19T11:25:47;7.70;;;2.05;;
47309;SDS011;33046;52.270;6.832;2023-10-19T11:28:04;4.63;;;1.55;;
47309;SDS011;33046;52.270;6.832;2023-10-19T11:30:23;5.60;;;1.88;;
47309;SDS011;33046;52.270;6.832;2023-10-19T11:32:35;3.92;;;1.40;;
47309;SDS011;33046;52.270;6.832;2023-10-19T11:34:42;6.45;;;1.80;;
47309;SDS011;33046;52.270;6.832;2023-10-19T11:36:52;6.43;;;1.60;;
47309;SDS011;33046;52.270;6.832;2023-10-19T11:38:59;6.85;;;1.63;;
47309;SDS011;33046;52.270;6.832;2023-10-19T11:41:07;5.72;;;1.25;;
47309;SDS011;33046;52.270;6.832;2023-10-19T11:43:14;7.05;;;1.70;;
47309;SDS011;33046;52.270;6.832;2023-10-19T11:45:21;8.80;;;2.67;;
47309;SDS011;33046;52.270;6.832;2023-10-19T11:47:28;4.80;;;2.80;;
47309;SDS011;33046;52.270;6.832;2023-10-19T11:49:37;5.53;;;1.67;;
47309;SDS011;33046;52.270;6.832;2023-10-19T11:51:44;5.68;;;1.60;;
47309;SDS011;33046;52.270;6.832;2023-10-19T11:53:51;6.82;;;1.65;;
47309;SDS011;33046;52.270;6.832;2023-10-19T11:55:58;6.28;;;1.30;;
47309;SDS011;33046;52.270;6.832;2023-10-19T11:58:06;7.35;;;1.98;;
47309;SDS011;33046;52.270;6.832;2023-10-19T12:00:13;8.65;;;1.30;;
47309;SDS011;33046;52.270;6.832;2023-10-19T12:02:20;5.18;;;1.58;;
47309;SDS011;33046;52.270;6.832;2023-10-19T12:04:27;6.35;;;1.75;;
47309;SDS011;33046;52.270;6.832;2023-10-19T12:06:34;7.80;;;1.17;;
47309;SDS011;33046;52.270;6.832;2023-10-19T12:08:41;5.82;;;2.55;;
47309;SDS011;33046;52.270;6.832;2023-10-19T12:10:48;5.40;;;1.50;;
47309;SDS011;33046;52.270;6.832;2023-10-19T12:12:56;9.23;;;1.63;;
47309;SDS011;33046;52.270;6.832;2023-10-19T12:15:08;5.63;;;1.17;;
47309;SDS011;33046;52.270;6.832;2023-10-19T12:17:15;3.72;;;1.92;;
47309;SDS011;33046;52.270;6.832;2023-10-19T12:19:22;6.07;;;1.45;;
47309;SDS011;33046;52.270;6.832;2023-10-19T12:21:29;8.80;;;1.98;;
47309;SDS011;33046;52.270;6.832;2023-10-19T12:23:36;6.63;;;1.05;;
47309;SDS011;33046;52.270;6.832;2023-10-19T12:25:42;6.28;;;1.95;;
47309;SDS011;33046;52.270;6.832;2023-10-19T12:28:01;7.00;;;1.27;;
47309;SDS011;33046;52.270;6.832;2023-10-19T12:30:10;4.93;;;1.65;;
47309;SDS011;33046;52.270;6.832;2023-10-19T12:32:17;6.60;;;2.10;;
47309;SDS011;33046;52.270;6.832;2023-10-19T12:34:24;7.07;;;1.30;;
47309;SDS011;33046;52.270;6.832;2023-10-19T12:36:31;8.30;;;1.40;;
47309;SDS011;33046;52.270;6.832;2023-10-19T12:38:38;7.53;;;1.60;;
47309;SDS011;33046;52.270;6.832;2023-10-19T12:40:45;5.18;;;1.50;;
47309;SDS011;33046;52.270;6.832;2023-10-19T12:42:52;4.72;;;2.05;;
47309;SDS011;33046;52.270;6.832;2023-10-19T12:44:59;7.03;;;1.23;;
47309;SDS011;33046;52.270;6.832;2023-10-19T12:47:08;8.13;;;1.30;;
47309;SDS011;33046;52.270;6.832;2023-10-19T12:49:15;6.70;;;1.98;;
47309;SDS011;33046;52.270;6.832;2023-10-19T12:51:22;5.20;;;1.75;;
47309;SDS011;33046;52.270;6.832;2023-10-19T12:53:29;5.68;;;1.23;;